OIZI  Iran Shahr Airport

Add Bookmark

Iran

Status
Operational
Latitude Longitude
27° 14' 9" N 60° 43' 12" E
27.236099 60.720001
Local (DST + 5) UTC (GMT + 4)
Nov 28, 2014 03:26 Nov 28, 2014 11:56
Sunrise-Sunset Local UTC
Begin Civil Twilight 05:31 02:01
Sunrise 05:56 02:26
Sunset 04:34 13:04
End Civil Twilight 04:59 13:29

Current Weather

METAR Observed VFR
OIZI 281100Z 23010KT CAVOK 26/07 Q1014 Fri, Nov 28, 2014 @ 11:00 UTC
(56 Minutes ago)
Visual Flight Rules
Wind Visibility Clouds Conditions
230° at 10 knots (19 kph) 10 km or more
  • Clear skies
  • No significant weather
Temperatures Readings Precipitation
Current Temp 26°C (79°F)
Dewpoint 7°C (45°F)
Humidity 30%
Altimeter 29.94"Hg
Sea Level Pressure 1014mb
Field Elevation 1938.98'
None Recorded

24 Hour Weather History

Loading
-

24 Hour Weather Graphs

Loading
-

CheckWX.com is intended as a tool to help pilots better visualize weather data. It is not intended as a substitute for an official weather briefing obtained from a Flight Service Station. CheckWX.com does not meet the FAA requirements for an official pre-flight weather briefing. Therefore, it's important that pilots still call and obtain an official FSS pre-flight weather briefing.